createdAt,value
2023-12-11T00:00:15.926Z,73.88
2023-12-11T00:05:18.751Z,73.80
2023-12-11T00:10:21.248Z,73.81
2023-12-11T00:15:23.817Z,73.93
2023-12-11T00:20:26.354Z,73.70
2023-12-11T00:25:29.263Z,73.82
2023-12-11T00:30:31.924Z,73.66
2023-12-11T00:35:34.427Z,73.57
2023-12-11T00:40:36.930Z,73.83
2023-12-11T00:45:39.457Z,74.06
2023-12-11T00:50:42.066Z,73.68
2023-12-11T00:55:44.540Z,73.74
2023-12-11T01:00:47.205Z,73.62
2023-12-11T01:05:49.621Z,73.85
2023-12-11T01:10:52.059Z,73.75
2023-12-11T01:15:54.541Z,74.06
2023-12-11T01:20:57.139Z,73.74
2023-12-11T01:25:59.673Z,73.92
2023-12-11T01:31:02.529Z,73.70
2023-12-11T01:36:05.518Z,73.77
2023-12-11T01:41:08.184Z,73.92
2023-12-11T01:46:13.634Z,73.85
2023-12-11T01:51:18.060Z,73.75
2023-12-11T01:56:22.913Z,73.80
2023-12-11T02:01:27.189Z,74.02
2023-12-11T02:06:29.835Z,73.92
2023-12-11T02:11:32.889Z,73.65
2023-12-11T02:16:35.455Z,74.06
2023-12-11T02:21:38.238Z,74.00
2023-12-11T02:26:40.947Z,74.03
2023-12-11T02:31:43.431Z,74.07
2023-12-11T02:36:45.917Z,74.23
2023-12-11T02:41:48.391Z,74.27
2023-12-11T02:46:50.884Z,74.40
2023-12-11T02:51:53.484Z,74.56
2023-12-11T02:56:56.011Z,74.53
2023-12-11T03:01:58.881Z,74.48
2023-12-11T03:07:01.525Z,74.54
2023-12-11T03:12:04.237Z,74.77
2023-12-11T03:17:06.973Z,74.81
2023-12-11T03:22:09.746Z,75.01
2023-12-11T03:27:12.354Z,74.81
2023-12-11T03:32:15.704Z,75.02
2023-12-11T03:37:20.720Z,75.04
2023-12-11T03:42:23.251Z,75.02
2023-12-11T03:47:25.803Z,74.84
2023-12-11T03:52:28.943Z,75.25
2023-12-11T03:57:32.826Z,75.19
2023-12-11T04:02:36.035Z,75.31
2023-12-11T04:07:38.842Z,75.10
2023-12-11T04:12:44.104Z,75.42
2023-12-11T04:17:46.835Z,75.45
2023-12-11T04:22:49.511Z,75.53
2023-12-11T04:27:52.374Z,75.62
2023-12-11T04:32:55.043Z,75.71
2023-12-11T04:37:57.610Z,75.83
2023-12-11T04:43:00.278Z,75.69
2023-12-11T04:48:03.996Z,75.75
2023-12-11T04:53:09.538Z,75.76
2023-12-11T04:58:12.253Z,76.16
2023-12-11T05:03:15.274Z,75.96
2023-12-11T05:08:20.554Z,76.00
2023-12-11T05:13:23.015Z,76.01
2023-12-11T05:18:25.574Z,76.18
2023-12-11T05:23:28.152Z,76.02
2023-12-11T05:28:30.715Z,76.04
2023-12-11T05:33:33.457Z,75.88
2023-12-11T05:38:36.147Z,75.94
2023-12-11T05:43:38.861Z,75.87
2023-12-11T05:48:41.641Z,76.01
2023-12-11T05:53:44.466Z,75.96
2023-12-11T05:58:47.186Z,75.90
2023-12-11T06:03:50.546Z,75.72
2023-12-11T06:08:56.059Z,75.93
2023-12-11T06:13:58.858Z,76.03
2023-12-11T06:19:01.508Z,75.99
2023-12-11T06:24:04.370Z,75.79
2023-12-11T06:29:09.189Z,75.90
2023-12-11T06:34:11.926Z,75.78
2023-12-11T06:39:14.546Z,75.75
2023-12-11T06:44:17.231Z,75.96
2023-12-11T06:49:20.807Z,75.82
2023-12-11T06:54:23.406Z,75.90
2023-12-11T06:59:25.842Z,76.01
2023-12-11T07:04:28.753Z,76.06
2023-12-11T07:09:32.672Z,75.99
2023-12-11T07:14:35.309Z,75.88
2023-12-11T07:19:37.881Z,75.93
2023-12-11T07:24:40.435Z,75.86
2023-12-11T07:29:42.883Z,75.62
2023-12-11T07:34:45.691Z,75.81
2023-12-11T07:39:49.353Z,75.79
2023-12-11T07:44:51.839Z,75.87
2023-12-11T07:49:54.521Z,75.77
2023-12-11T07:54:58.480Z,75.82
2023-12-11T08:00:01.574Z,75.95
2023-12-11T08:05:07.381Z,75.76
2023-12-11T08:10:10.311Z,75.91
2023-12-11T08:15:12.866Z,75.69
2023-12-11T08:20:19.096Z,75.82
2023-12-11T08:25:23.288Z,75.68
2023-12-11T08:30:25.785Z,75.92
2023-12-11T08:35:28.487Z,75.83
2023-12-11T08:40:31.053Z,75.74
2023-12-11T08:45:37.035Z,75.56
2023-12-11T08:50:39.617Z,75.78
2023-12-11T08:55:43.222Z,75.75
2023-12-11T09:00:46.332Z,75.47
2023-12-11T09:05:49.002Z,75.60
2023-12-11T09:10:51.654Z,75.25
2023-12-11T09:15:56.525Z,75.49
2023-12-11T09:20:59.106Z,75.32
2023-12-11T09:26:01.927Z,75.59
2023-12-11T09:31:04.766Z,75.55
2023-12-11T09:36:08.275Z,75.50
2023-12-11T09:41:10.773Z,75.43
2023-12-11T09:46:14.416Z,75.43
2023-12-11T09:51:18.301Z,75.47
2023-12-11T09:56:20.861Z,75.74
2023-12-11T10:01:23.692Z,75.51
2023-12-11T10:06:26.355Z,75.54
2023-12-11T10:11:29.862Z,75.57
2023-12-11T10:16:33.913Z,75.53
2023-12-11T10:21:43.081Z,75.33
2023-12-11T10:26:47.637Z,75.49
2023-12-11T10:31:50.845Z,75.25
2023-12-11T10:36:54.284Z,75.58
2023-12-11T10:41:56.968Z,75.49
2023-12-11T10:46:59.722Z,75.49
2023-12-11T10:52:04.461Z,75.39
2023-12-11T10:57:10.821Z,75.49
2023-12-11T11:02:19.173Z,75.75
2023-12-11T11:07:36.615Z,75.74
2023-12-11T11:12:58.966Z,75.69
2023-12-11T11:18:05.509Z,75.67
2023-12-11T11:23:22.095Z,75.63
2023-12-11T11:28:44.780Z,75.69
2023-12-11T11:33:53.672Z,75.53
2023-12-11T11:39:02.454Z,75.39
2023-12-11T11:44:09.753Z,75.46
2023-12-11T11:49:25.375Z,75.15
2023-12-11T11:54:30.937Z,75.00
2023-12-11T11:59:43.237Z,75.25
2023-12-11T12:04:45.811Z,75.12
2023-12-11T12:09:54.060Z,75.17
2023-12-11T12:15:05.568Z,75.11
2023-12-11T12:20:14.333Z,75.16
2023-12-11T12:25:17.922Z,75.13
2023-12-11T12:30:20.968Z,75.13
2023-12-11T12:35:23.614Z,75.18
2023-12-11T12:40:26.237Z,75.20
2023-12-11T12:45:37.132Z,75.19
2023-12-11T12:50:40.285Z,75.38
2023-12-11T12:55:42.885Z,75.25
2023-12-11T13:00:46.190Z,75.60
2023-12-11T13:05:50.300Z,75.62
2023-12-11T13:10:57.544Z,75.62
2023-12-11T13:16:00.213Z,75.60
2023-12-11T13:21:02.948Z,75.55
2023-12-11T13:26:05.786Z,75.63
2023-12-11T13:31:08.399Z,75.49
2023-12-11T13:36:12.155Z,75.57
2023-12-11T13:41:15.133Z,75.71
2023-12-11T13:46:17.775Z,75.71
2023-12-11T13:51:20.513Z,75.45
2023-12-11T13:56:23.320Z,75.68
2023-12-11T14:01:26.228Z,75.66
2023-12-11T14:06:28.874Z,75.84
2023-12-11T14:11:31.415Z,75.78
2023-12-11T14:16:34.414Z,75.68
2023-12-11T14:21:37.118Z,75.82
2023-12-11T14:26:47.224Z,75.88
2023-12-11T14:31:51.061Z,75.75
2023-12-11T14:36:53.777Z,75.75
2023-12-11T14:41:56.629Z,75.77
2023-12-11T14:47:01.782Z,75.89
2023-12-11T14:52:04.594Z,75.75
2023-12-11T14:57:07.571Z,76.03
2023-12-11T15:02:11.750Z,76.01
2023-12-11T15:07:14.412Z,75.95
2023-12-11T15:12:17.040Z,76.15
2023-12-11T15:17:23.022Z,76.04
2023-12-11T15:22:25.835Z,76.07
2023-12-11T15:27:28.791Z,76.02
2023-12-11T15:32:31.977Z,76.07
2023-12-11T15:37:37.228Z,76.01
2023-12-11T15:42:39.876Z,75.96
2023-12-11T15:48:00.680Z,75.92
2023-12-11T15:53:05.933Z,75.96
2023-12-11T15:58:11.093Z,75.84
2023-12-11T16:03:15.123Z,76.17
2023-12-11T16:08:17.816Z,76.16
2023-12-11T16:13:21.219Z,76.21
2023-12-11T16:18:26.047Z,76.21
2023-12-11T16:23:30.116Z,76.13
2023-12-11T16:28:40.917Z,76.33
2023-12-11T16:33:45.983Z,76.56
2023-12-11T16:38:49.697Z,76.39
2023-12-11T16:43:53.887Z,76.24
2023-12-11T16:48:57.208Z,76.62
2023-12-11T16:54:07.101Z,76.37
2023-12-11T16:59:13.003Z,76.55
2023-12-11T17:04:15.757Z,76.56
2023-12-11T17:09:18.402Z,76.19
2023-12-11T17:14:22.974Z,76.49
2023-12-11T17:19:25.552Z,76.52
2023-12-11T17:24:31.202Z,76.41
2023-12-11T17:29:34.752Z,76.20
2023-12-11T17:34:37.516Z,76.03
2023-12-11T17:39:40.060Z,76.05
2023-12-11T17:44:42.743Z,76.13
2023-12-11T17:49:46.167Z,75.91
2023-12-11T17:54:50.555Z,76.00
2023-12-11T17:59:54.373Z,76.10
2023-12-11T18:04:58.214Z,75.99
2023-12-11T18:10:05.109Z,75.98
2023-12-11T18:15:07.997Z,75.74
2023-12-11T18:20:13.497Z,75.65
2023-12-11T18:25:18.351Z,75.55
2023-12-11T18:30:22.821Z,75.64
2023-12-11T18:35:25.593Z,75.54
2023-12-11T18:40:29.775Z,75.30
2023-12-11T18:45:32.853Z,75.41
2023-12-11T18:50:36.583Z,75.37
2023-12-11T18:55:39.156Z,75.47
2023-12-11T19:01:04.241Z,75.27
2023-12-11T19:06:07.353Z,75.24
2023-12-11T19:11:21.153Z,75.09
2023-12-11T19:16:24.393Z,75.20
2023-12-11T19:21:27.024Z,74.95
2023-12-11T19:26:29.996Z,75.09
2023-12-11T19:31:32.928Z,75.15
2023-12-11T19:36:36.734Z,74.87
2023-12-11T19:41:43.098Z,75.08
2023-12-11T19:46:53.062Z,74.90
2023-12-11T19:51:55.932Z,74.95
2023-12-11T19:56:59.088Z,74.85
2023-12-11T20:02:03.273Z,74.99
2023-12-11T20:07:08.667Z,74.84
2023-12-11T20:12:15.011Z,74.81
2023-12-11T20:17:23.083Z,74.88
2023-12-11T20:22:25.747Z,74.63
2023-12-11T20:27:28.929Z,74.87
2023-12-11T20:32:33.813Z,74.57
2023-12-11T20:37:39.268Z,74.67
2023-12-11T20:42:42.114Z,74.41
2023-12-11T20:47:44.714Z,74.56
2023-12-11T20:52:47.318Z,74.85
2023-12-11T20:57:49.802Z,74.44
2023-12-11T21:02:52.979Z,74.57
2023-12-11T21:07:58.804Z,74.64
2023-12-11T21:13:01.375Z,74.36
2023-12-11T21:18:04.039Z,74.53
2023-12-11T21:23:06.564Z,74.32
2023-12-11T21:28:09.062Z,74.18
2023-12-11T21:33:11.665Z,74.48
2023-12-11T21:38:15.654Z,74.60
2023-12-11T21:43:18.300Z,74.21
2023-12-11T21:48:25.323Z,74.46
2023-12-11T21:53:28.061Z,74.37
2023-12-11T21:58:32.300Z,74.46
2023-12-11T22:03:35.882Z,74.63
2023-12-11T22:08:38.592Z,74.54
2023-12-11T22:13:42.206Z,74.52
2023-12-11T22:18:47.199Z,74.59
2023-12-11T22:23:49.757Z,74.70
2023-12-11T22:28:52.266Z,74.58
2023-12-11T22:33:54.809Z,74.66
2023-12-11T22:38:57.729Z,74.83
2023-12-11T22:44:00.576Z,74.87
2023-12-11T22:49:03.173Z,74.73
2023-12-11T22:54:05.766Z,75.17
2023-12-11T22:59:08.422Z,74.86
2023-12-11T23:04:11.274Z,75.05
2023-12-11T23:09:13.808Z,75.13
2023-12-11T23:14:16.476Z,75.07
2023-12-11T23:19:19.026Z,74.99
2023-12-11T23:24:22.271Z,75.21
2023-12-11T23:29:24.751Z,75.22
2023-12-11T23:34:27.239Z,75.22
2023-12-11T23:39:29.805Z,75.12
2023-12-11T23:44:32.369Z,75.06
2023-12-11T23:49:38.934Z,75.31
2023-12-11T23:54:41.510Z,75.22
2023-12-11T23:59:43.949Z,75.26
